Terminal Aerodrome Forecast
Issued by NWS Cleveland, OH

Home | Current Version | Previous Version | Graphics & Text | Print | Product List | Glossary On
Versions: 1 2 3 4 5 6 7 8 9 10 11 12 13 14 15 16 17 18 19 20 21 22 23 24 25 26 27 28 29 30 31
000
FTUS41 KCLE 011317 AAB
TAFCLE
TAF AMD
KCLE 011317Z 0113/0218 25015G25KT P6SM VCSH SCT025 OVC040
      TEMPO 0115/0119 BKN030
     FM020300 25012KT P6SM VCSH BKN015=

USA.gov is the U.S. government's official web portal to all federal, state and local government web resources and services.